Weather at Chicken Strip

Public forecast

Using degrees Fahrenheit for public forecast. Weather courtesy of forecast.io.

Closest aviation weather report (METAR) to Chicken Strip

Closest report is Eastern Sierra Regional Airport, 44.0 nm (81.4 km) NW. Retrieved 2021/06/12 09:56 UTC (34 minutes ago):

KBIH 120956Z AUTO 34005KT 10SM CLR 12/M06 A3000 RMK AO2 SLP111 T01171056

Closest aviation forecast (TAF) to Chicken Strip

Closest forecast is Eastern Sierra Regional Airport, 44.0 nm (81.4 km) NW. Retrieved 2021/06/12 06:22 UTC (4 hours ago):

TAF KBIH 120520Z 1206/1306 15009KT P6SM SKC FM120900 32005KT P6SM SKC FM121700 16009KT P6SM SKC FM121900 16012G20KT P6SM SKC